sensor_id;sensor_type;location;lat;lon;timestamp;P1;durP1;ratioP1;P2;durP2;ratioP2
71771;SDS011;59606;52.138;5.424;2023-05-10T00:01:18;21.73;;;9.53;;
71771;SDS011;59606;52.138;5.424;2023-05-10T00:03:44;22.70;;;9.80;;
71771;SDS011;59606;52.138;5.424;2023-05-10T00:06:11;20.80;;;9.18;;
71771;SDS011;59606;52.138;5.424;2023-05-10T00:08:41;21.80;;;9.50;;
71771;SDS011;59606;52.138;5.424;2023-05-10T00:11:07;23.17;;;10.23;;
71771;SDS011;59606;52.138;5.424;2023-05-10T00:13:34;25.23;;;9.77;;
71771;SDS011;59606;52.138;5.424;2023-05-10T00:16:00;28.48;;;11.98;;
71771;SDS011;59606;52.138;5.424;2023-05-10T00:18:27;24.48;;;11.65;;
71771;SDS011;59606;52.138;5.424;2023-05-10T00:20:53;24.10;;;10.50;;
71771;SDS011;59606;52.138;5.424;2023-05-10T00:23:20;26.90;;;12.43;;
71771;SDS011;59606;52.138;5.424;2023-05-10T00:25:46;27.23;;;11.20;;
71771;SDS011;59606;52.138;5.424;2023-05-10T00:28:13;25.83;;;11.63;;
71771;SDS011;59606;52.138;5.424;2023-05-10T00:30:39;30.95;;;13.60;;
71771;SDS011;59606;52.138;5.424;2023-05-10T00:33:06;36.22;;;13.57;;
71771;SDS011;59606;52.138;5.424;2023-05-10T00:35:33;29.48;;;13.40;;
71771;SDS011;59606;52.138;5.424;2023-05-10T00:38:00;31.67;;;13.37;;
71771;SDS011;59606;52.138;5.424;2023-05-10T00:40:27;34.92;;;14.65;;
71771;SDS011;59606;52.138;5.424;2023-05-10T00:42:54;39.17;;;14.60;;
71771;SDS011;59606;52.138;5.424;2023-05-10T00:45:21;37.92;;;15.90;;
71771;SDS011;59606;52.138;5.424;2023-05-10T00:47:49;41.33;;;15.38;;
71771;SDS011;59606;52.138;5.424;2023-05-10T00:50:16;39.07;;;16.33;;
71771;SDS011;59606;52.138;5.424;2023-05-10T00:52:43;38.78;;;16.05;;
71771;SDS011;59606;52.138;5.424;2023-05-10T00:55:10;45.67;;;16.30;;
71771;SDS011;59606;52.138;5.424;2023-05-10T00:57:38;47.33;;;17.35;;
71771;SDS011;59606;52.138;5.424;2023-05-10T01:00:05;49.13;;;17.70;;
71771;SDS011;59606;52.138;5.424;2023-05-10T01:02:33;46.50;;;17.47;;
71771;SDS011;59606;52.138;5.424;2023-05-10T01:05:01;49.72;;;18.65;;
71771;SDS011;59606;52.138;5.424;2023-05-10T01:07:30;49.72;;;18.17;;
71771;SDS011;59606;52.138;5.424;2023-05-10T01:09:56;49.33;;;17.70;;
71771;SDS011;59606;52.138;5.424;2023-05-10T01:12:24;54.65;;;18.27;;
71771;SDS011;59606;52.138;5.424;2023-05-10T01:14:53;48.03;;;17.37;;
71771;SDS011;59606;52.138;5.424;2023-05-10T01:17:21;48.70;;;17.73;;
71771;SDS011;59606;52.138;5.424;2023-05-10T01:19:48;49.03;;;18.40;;
71771;SDS011;59606;52.138;5.424;2023-05-10T01:22:36;52.17;;;18.90;;
71771;SDS011;59606;52.138;5.424;2023-05-10T01:36:30;49.42;;;17.88;;
71771;SDS011;59606;52.138;5.424;2023-05-10T01:39:02;50.83;;;17.40;;
71771;SDS011;59606;52.138;5.424;2023-05-10T01:44:39;56.88;;;19.33;;
71771;SDS011;59606;52.138;5.424;2023-05-10T01:47:46;56.08;;;19.38;;
71771;SDS011;59606;52.138;5.424;2023-05-10T01:50:15;54.85;;;18.27;;
71771;SDS011;59606;52.138;5.424;2023-05-10T01:52:55;51.40;;;17.77;;
71771;SDS011;59606;52.138;5.424;2023-05-10T01:55:24;50.30;;;18.70;;
71771;SDS011;59606;52.138;5.424;2023-05-10T01:57:58;59.20;;;18.95;;
71771;SDS011;59606;52.138;5.424;2023-05-10T02:00:29;51.30;;;19.20;;
71771;SDS011;59606;52.138;5.424;2023-05-10T02:02:57;55.25;;;18.30;;
71771;SDS011;59606;52.138;5.424;2023-05-10T02:05:26;52.78;;;18.13;;
71771;SDS011;59606;52.138;5.424;2023-05-10T02:07:55;55.57;;;18.90;;
71771;SDS011;59606;52.138;5.424;2023-05-10T02:10:24;52.17;;;18.60;;
71771;SDS011;59606;52.138;5.424;2023-05-10T02:12:52;53.53;;;20.25;;
71771;SDS011;59606;52.138;5.424;2023-05-10T02:15:22;57.42;;;19.98;;
71771;SDS011;59606;52.138;5.424;2023-05-10T02:17:50;53.70;;;19.33;;
71771;SDS011;59606;52.138;5.424;2023-05-10T02:20:20;57.10;;;19.30;;
71771;SDS011;59606;52.138;5.424;2023-05-10T02:22:50;53.13;;;19.27;;
71771;SDS011;59606;52.138;5.424;2023-05-10T02:25:19;56.40;;;19.70;;
71771;SDS011;59606;52.138;5.424;2023-05-10T02:27:47;62.75;;;19.88;;
71771;SDS011;59606;52.138;5.424;2023-05-10T02:30:15;59.63;;;20.42;;
71771;SDS011;59606;52.138;5.424;2023-05-10T02:32:42;55.60;;;19.17;;
71771;SDS011;59606;52.138;5.424;2023-05-10T02:35:10;56.25;;;18.73;;
71771;SDS011;59606;52.138;5.424;2023-05-10T02:37:37;53.00;;;19.45;;
71771;SDS011;59606;52.138;5.424;2023-05-10T02:40:06;59.03;;;18.98;;
71771;SDS011;59606;52.138;5.424;2023-05-10T02:42:35;53.90;;;19.52;;
71771;SDS011;59606;52.138;5.424;2023-05-10T02:45:05;56.73;;;20.03;;
71771;SDS011;59606;52.138;5.424;2023-05-10T02:47:34;51.55;;;18.30;;
71771;SDS011;59606;52.138;5.424;2023-05-10T02:50:01;51.55;;;19.15;;
71771;SDS011;59606;52.138;5.424;2023-05-10T02:52:29;62.70;;;19.80;;
71771;SDS011;59606;52.138;5.424;2023-05-10T02:55:02;56.03;;;18.58;;
71771;SDS011;59606;52.138;5.424;2023-05-10T02:57:33;62.20;;;20.17;;
71771;SDS011;59606;52.138;5.424;2023-05-10T03:00:01;60.35;;;19.83;;
71771;SDS011;59606;52.138;5.424;2023-05-10T03:02:29;55.92;;;20.15;;
71771;SDS011;59606;52.138;5.424;2023-05-10T03:04:57;56.63;;;18.50;;
71771;SDS011;59606;52.138;5.424;2023-05-10T03:07:23;58.63;;;21.33;;
71771;SDS011;59606;52.138;5.424;2023-05-10T03:09:50;62.23;;;20.17;;
71771;SDS011;59606;52.138;5.424;2023-05-10T03:20:25;68.55;;;21.42;;
71771;SDS011;59606;52.138;5.424;2023-05-10T03:22:57;63.80;;;19.57;;
71771;SDS011;59606;52.138;5.424;2023-05-10T03:25:46;68.05;;;21.48;;
71771;SDS011;59606;52.138;5.424;2023-05-10T03:28:14;72.32;;;22.20;;
71771;SDS011;59606;52.138;5.424;2023-05-10T03:30:43;64.82;;;20.13;;
71771;SDS011;59606;52.138;5.424;2023-05-10T03:33:11;64.65;;;19.90;;
71771;SDS011;59606;52.138;5.424;2023-05-10T03:35:38;69.97;;;20.97;;
71771;SDS011;59606;52.138;5.424;2023-05-10T03:38:05;68.85;;;19.88;;
71771;SDS011;59606;52.138;5.424;2023-05-10T03:40:32;69.38;;;22.00;;
71771;SDS011;59606;52.138;5.424;2023-05-10T03:42:58;76.43;;;21.67;;
71771;SDS011;59606;52.138;5.424;2023-05-10T03:45:25;75.53;;;20.92;;
71771;SDS011;59606;52.138;5.424;2023-05-10T03:47:52;73.53;;;20.63;;
71771;SDS011;59606;52.138;5.424;2023-05-10T03:50:19;65.20;;;19.95;;
71771;SDS011;59606;52.138;5.424;2023-05-10T03:52:47;70.47;;;21.58;;
71771;SDS011;59606;52.138;5.424;2023-05-10T03:55:14;72.38;;;22.15;;
71771;SDS011;59606;52.138;5.424;2023-05-10T03:57:41;71.20;;;20.20;;
71771;SDS011;59606;52.138;5.424;2023-05-10T04:00:08;76.10;;;20.70;;
71771;SDS011;59606;52.138;5.424;2023-05-10T04:02:35;72.95;;;20.20;;
71771;SDS011;59606;52.138;5.424;2023-05-10T04:05:03;71.63;;;20.42;;
71771;SDS011;59606;52.138;5.424;2023-05-10T04:07:30;73.32;;;20.65;;
71771;SDS011;59606;52.138;5.424;2023-05-10T04:09:57;81.47;;;21.92;;
71771;SDS011;59606;52.138;5.424;2023-05-10T04:12:23;74.93;;;21.47;;
71771;SDS011;59606;52.138;5.424;2023-05-10T04:14:50;72.07;;;20.38;;
71771;SDS011;59606;52.138;5.424;2023-05-10T04:17:17;71.65;;;20.73;;
71771;SDS011;59606;52.138;5.424;2023-05-10T04:19:43;76.43;;;20.80;;
71771;SDS011;59606;52.138;5.424;2023-05-10T04:22:10;67.03;;;20.10;;
71771;SDS011;59606;52.138;5.424;2023-05-10T04:24:36;78.57;;;21.63;;
71771;SDS011;59606;52.138;5.424;2023-05-10T04:27:02;71.95;;;20.60;;
71771;SDS011;59606;52.138;5.424;2023-05-10T04:29:29;70.18;;;21.13;;
71771;SDS011;59606;52.138;5.424;2023-05-10T04:31:55;71.32;;;20.25;;
71771;SDS011;59606;52.138;5.424;2023-05-10T04:34:22;63.50;;;21.10;;
71771;SDS011;59606;52.138;5.424;2023-05-10T04:36:49;72.17;;;20.10;;
71771;SDS011;59606;52.138;5.424;2023-05-10T04:39:16;64.63;;;20.35;;
71771;SDS011;59606;52.138;5.424;2023-05-10T04:41:43;77.30;;;21.73;;
71771;SDS011;59606;52.138;5.424;2023-05-10T04:44:09;67.68;;;23.25;;
71771;SDS011;59606;52.138;5.424;2023-05-10T04:46:35;66.80;;;20.70;;
71771;SDS011;59606;52.138;5.424;2023-05-10T04:49:02;69.10;;;20.73;;
71771;SDS011;59606;52.138;5.424;2023-05-10T04:51:29;71.70;;;20.30;;
71771;SDS011;59606;52.138;5.424;2023-05-10T04:53:55;68.68;;;21.27;;
71771;SDS011;59606;52.138;5.424;2023-05-10T04:56:32;68.47;;;20.23;;
71771;SDS011;59606;52.138;5.424;2023-05-10T04:58:58;68.97;;;22.08;;
71771;SDS011;59606;52.138;5.424;2023-05-10T05:01:25;63.40;;;19.97;;
71771;SDS011;59606;52.138;5.424;2023-05-10T05:03:52;71.50;;;20.13;;
71771;SDS011;59606;52.138;5.424;2023-05-10T05:06:19;72.18;;;21.70;;
71771;SDS011;59606;52.138;5.424;2023-05-10T05:08:47;75.00;;;21.80;;
71771;SDS011;59606;52.138;5.424;2023-05-10T05:11:15;79.28;;;22.85;;
71771;SDS011;59606;52.138;5.424;2023-05-10T05:13:43;77.30;;;21.17;;
71771;SDS011;59606;52.138;5.424;2023-05-10T05:16:09;74.88;;;23.83;;
71771;SDS011;59606;52.138;5.424;2023-05-10T05:18:37;80.20;;;23.05;;
71771;SDS011;59606;52.138;5.424;2023-05-10T05:21:12;68.55;;;22.70;;
71771;SDS011;59606;52.138;5.424;2023-05-10T05:23:40;78.47;;;23.48;;
71771;SDS011;59606;52.138;5.424;2023-05-10T05:26:06;77.97;;;21.80;;
71771;SDS011;59606;52.138;5.424;2023-05-10T05:28:33;76.13;;;24.63;;
71771;SDS011;59606;52.138;5.424;2023-05-10T05:31:03;74.80;;;22.80;;
71771;SDS011;59606;52.138;5.424;2023-05-10T05:33:31;79.00;;;23.65;;
71771;SDS011;59606;52.138;5.424;2023-05-10T05:36:01;71.10;;;23.48;;
71771;SDS011;59606;52.138;5.424;2023-05-10T05:38:29;75.87;;;22.17;;
71771;SDS011;59606;52.138;5.424;2023-05-10T05:40:55;65.10;;;21.63;;
71771;SDS011;59606;52.138;5.424;2023-05-10T05:43:23;61.53;;;21.20;;
71771;SDS011;59606;52.138;5.424;2023-05-10T05:45:49;66.10;;;22.00;;
71771;SDS011;59606;52.138;5.424;2023-05-10T05:48:22;63.75;;;20.77;;
71771;SDS011;59606;52.138;5.424;2023-05-10T05:50:49;59.73;;;21.47;;
71771;SDS011;59606;52.138;5.424;2023-05-10T05:53:16;60.28;;;21.50;;
71771;SDS011;59606;52.138;5.424;2023-05-10T05:55:52;65.63;;;21.10;;
71771;SDS011;59606;52.138;5.424;2023-05-10T05:58:23;66.10;;;20.90;;
71771;SDS011;59606;52.138;5.424;2023-05-10T06:00:51;63.17;;;21.95;;
71771;SDS011;59606;52.138;5.424;2023-05-10T06:03:18;66.50;;;21.70;;
71771;SDS011;59606;52.138;5.424;2023-05-10T06:05:45;56.10;;;19.77;;
71771;SDS011;59606;52.138;5.424;2023-05-10T06:08:12;57.22;;;18.20;;
71771;SDS011;59606;52.138;5.424;2023-05-10T06:10:38;47.70;;;16.88;;
71771;SDS011;59606;52.138;5.424;2023-05-10T06:13:05;51.15;;;19.23;;
71771;SDS011;59606;52.138;5.424;2023-05-10T06:15:31;47.00;;;18.13;;
71771;SDS011;59606;52.138;5.424;2023-05-10T06:17:58;50.42;;;18.58;;
71771;SDS011;59606;52.138;5.424;2023-05-10T06:20:25;54.85;;;18.40;;
71771;SDS011;59606;52.138;5.424;2023-05-10T06:22:52;57.03;;;18.98;;
71771;SDS011;59606;52.138;5.424;2023-05-10T06:25:18;52.72;;;19.58;;
71771;SDS011;59606;52.138;5.424;2023-05-10T06:27:45;56.67;;;19.83;;
71771;SDS011;59606;52.138;5.424;2023-05-10T06:30:16;46.67;;;17.73;;
71771;SDS011;59606;52.138;5.424;2023-05-10T06:32:42;50.30;;;17.80;;
71771;SDS011;59606;52.138;5.424;2023-05-10T06:35:10;51.70;;;16.90;;
71771;SDS011;59606;52.138;5.424;2023-05-10T06:37:37;49.03;;;16.67;;
71771;SDS011;59606;52.138;5.424;2023-05-10T06:40:03;47.57;;;16.47;;
71771;SDS011;59606;52.138;5.424;2023-05-10T06:42:31;44.30;;;15.90;;
71771;SDS011;59606;52.138;5.424;2023-05-10T06:44:57;47.38;;;14.95;;
71771;SDS011;59606;52.138;5.424;2023-05-10T06:47:24;39.80;;;13.45;;
71771;SDS011;59606;52.138;5.424;2023-05-10T06:49:50;45.55;;;14.43;;
71771;SDS011;59606;52.138;5.424;2023-05-10T06:52:17;36.87;;;12.07;;
71771;SDS011;59606;52.138;5.424;2023-05-10T06:54:43;31.92;;;11.18;;
71771;SDS011;59606;52.138;5.424;2023-05-10T06:57:10;30.80;;;11.13;;
71771;SDS011;59606;52.138;5.424;2023-05-10T06:59:56;30.20;;;10.52;;
71771;SDS011;59606;52.138;5.424;2023-05-10T07:02:23;27.17;;;11.40;;
71771;SDS011;59606;52.138;5.424;2023-05-10T07:04:50;24.47;;;10.23;;
71771;SDS011;59606;52.138;5.424;2023-05-10T07:07:18;27.15;;;10.07;;
71771;SDS011;59606;52.138;5.424;2023-05-10T07:09:45;24.42;;;9.52;;
71771;SDS011;59606;52.138;5.424;2023-05-10T07:12:12;17.98;;;7.50;;
71771;SDS011;59606;52.138;5.424;2023-05-10T07:14:40;21.95;;;9.02;;
71771;SDS011;59606;52.138;5.424;2023-05-10T07:17:07;20.90;;;8.30;;
71771;SDS011;59606;52.138;5.424;2023-05-10T07:19:38;20.52;;;8.70;;
71771;SDS011;59606;52.138;5.424;2023-05-10T07:22:05;22.90;;;8.57;;
71771;SDS011;59606;52.138;5.424;2023-05-10T07:24:32;18.50;;;7.47;;
71771;SDS011;59606;52.138;5.424;2023-05-10T07:26:59;20.88;;;8.05;;
71771;SDS011;59606;52.138;5.424;2023-05-10T07:29:26;21.07;;;8.53;;
71771;SDS011;59606;52.138;5.424;2023-05-10T07:31:53;16.20;;;6.55;;
71771;SDS011;59606;52.138;5.424;2023-05-10T07:34:23;17.08;;;7.18;;
71771;SDS011;59606;52.138;5.424;2023-05-10T07:36:51;16.25;;;7.00;;
71771;SDS011;59606;52.138;5.424;2023-05-10T07:39:17;20.00;;;7.95;;
71771;SDS011;59606;52.138;5.424;2023-05-10T07:41:53;17.00;;;7.60;;
71771;SDS011;59606;52.138;5.424;2023-05-10T07:44:20;25.20;;;7.22;;
71771;SDS011;59606;52.138;5.424;2023-05-10T07:46:46;22.50;;;9.13;;
71771;SDS011;59606;52.138;5.424;2023-05-10T07:49:13;22.05;;;8.48;;
71771;SDS011;59606;52.138;5.424;2023-05-10T07:51:40;18.50;;;8.20;;
71771;SDS011;59606;52.138;5.424;2023-05-10T07:54:08;19.57;;;7.13;;
71771;SDS011;59606;52.138;5.424;2023-05-10T07:56:34;20.80;;;8.38;;
71771;SDS011;59606;52.138;5.424;2023-05-10T07:59:02;23.17;;;8.60;;
71771;SDS011;59606;52.138;5.424;2023-05-10T08:01:30;17.15;;;6.88;;
71771;SDS011;59606;52.138;5.424;2023-05-10T08:03:58;18.60;;;7.50;;
71771;SDS011;59606;52.138;5.424;2023-05-10T08:06:30;14.50;;;6.50;;
71771;SDS011;59606;52.138;5.424;2023-05-10T08:08:56;16.55;;;7.32;;
71771;SDS011;59606;52.138;5.424;2023-05-10T08:11:23;18.02;;;7.32;;
71771;SDS011;59606;52.138;5.424;2023-05-10T08:13:50;13.98;;;5.97;;
71771;SDS011;59606;52.138;5.424;2023-05-10T08:16:17;16.58;;;7.05;;
71771;SDS011;59606;52.138;5.424;2023-05-10T08:18:44;17.30;;;7.27;;
71771;SDS011;59606;52.138;5.424;2023-05-10T08:21:13;17.60;;;7.03;;
71771;SDS011;59606;52.138;5.424;2023-05-10T08:23:40;16.60;;;6.85;;
71771;SDS011;59606;52.138;5.424;2023-05-10T08:26:07;14.90;;;6.75;;
71771;SDS011;59606;52.138;5.424;2023-05-10T08:28:33;14.05;;;7.65;;
71771;SDS011;59606;52.138;5.424;2023-05-10T08:31:00;19.80;;;8.10;;
71771;SDS011;59606;52.138;5.424;2023-05-10T08:33:26;15.32;;;7.45;;
71771;SDS011;59606;52.138;5.424;2023-05-10T08:35:53;16.63;;;7.88;;
71771;SDS011;59606;52.138;5.424;2023-05-10T08:38:19;18.08;;;7.47;;
71771;SDS011;59606;52.138;5.424;2023-05-10T08:40:46;16.10;;;7.90;;
71771;SDS011;59606;52.138;5.424;2023-05-10T08:43:15;19.67;;;8.87;;
71771;SDS011;59606;52.138;5.424;2023-05-10T08:45:42;39.58;;;19.10;;
71771;SDS011;59606;52.138;5.424;2023-05-10T08:48:11;18.85;;;9.35;;
71771;SDS011;59606;52.138;5.424;2023-05-10T08:50:38;26.45;;;9.30;;
71771;SDS011;59606;52.138;5.424;2023-05-10T08:53:09;17.83;;;9.13;;
71771;SDS011;59606;52.138;5.424;2023-05-10T08:55:37;17.37;;;8.60;;
71771;SDS011;59606;52.138;5.424;2023-05-10T08:58:05;18.48;;;8.43;;
71771;SDS011;59606;52.138;5.424;2023-05-10T09:00:32;19.98;;;9.02;;
71771;SDS011;59606;52.138;5.424;2023-05-10T09:03:00;16.80;;;8.55;;
71771;SDS011;59606;52.138;5.424;2023-05-10T09:05:27;16.45;;;7.95;;
71771;SDS011;59606;52.138;5.424;2023-05-10T09:07:54;22.67;;;7.67;;
71771;SDS011;59606;52.138;5.424;2023-05-10T09:10:21;17.08;;;8.35;;
71771;SDS011;59606;52.138;5.424;2023-05-10T09:12:52;14.02;;;6.22;;
71771;SDS011;59606;52.138;5.424;2023-05-10T09:15:24;14.52;;;7.07;;
71771;SDS011;59606;52.138;5.424;2023-05-10T09:17:50;18.02;;;7.53;;
71771;SDS011;59606;52.138;5.424;2023-05-10T09:20:17;16.63;;;7.57;;
71771;SDS011;59606;52.138;5.424;2023-05-10T09:22:44;13.32;;;5.65;;
71771;SDS011;59606;52.138;5.424;2023-05-10T09:25:14;11.90;;;5.00;;
71771;SDS011;59606;52.138;5.424;2023-05-10T09:27:46;8.20;;;4.30;;
71771;SDS011;59606;52.138;5.424;2023-05-10T09:30:17;9.52;;;3.78;;
71771;SDS011;59606;52.138;5.424;2023-05-10T09:32:50;7.10;;;3.67;;
71771;SDS011;59606;52.138;5.424;2023-05-10T09:35:17;9.40;;;4.00;;
71771;SDS011;59606;52.138;5.424;2023-05-10T09:37:46;7.05;;;3.78;;
71771;SDS011;59606;52.138;5.424;2023-05-10T09:40:17;5.53;;;2.88;;
71771;SDS011;59606;52.138;5.424;2023-05-10T09:43:01;7.70;;;3.05;;
71771;SDS011;59606;52.138;5.424;2023-05-10T09:45:35;7.60;;;3.83;;
71771;SDS011;59606;52.138;5.424;2023-05-10T09:48:04;7.10;;;3.13;;
71771;SDS011;59606;52.138;5.424;2023-05-10T09:50:31;8.75;;;2.83;;
71771;SDS011;59606;52.138;5.424;2023-05-10T09:53:01;7.60;;;2.40;;
71771;SDS011;59606;52.138;5.424;2023-05-10T09:58:05;6.23;;;3.23;;
71771;SDS011;59606;52.138;5.424;2023-05-10T10:00:37;7.05;;;2.63;;
71771;SDS011;59606;52.138;5.424;2023-05-10T10:03:04;7.28;;;3.30;;
71771;SDS011;59606;52.138;5.424;2023-05-10T10:05:32;10.50;;;4.05;;
71771;SDS011;59606;52.138;5.424;2023-05-10T10:08:01;10.63;;;3.90;;
71771;SDS011;59606;52.138;5.424;2023-05-10T10:10:31;10.03;;;3.77;;
71771;SDS011;59606;52.138;5.424;2023-05-10T10:12:58;12.63;;;4.20;;
71771;SDS011;59606;52.138;5.424;2023-05-10T10:15:25;8.15;;;3.70;;
71771;SDS011;59606;52.138;5.424;2023-05-10T10:17:52;10.55;;;4.18;;
71771;SDS011;59606;52.138;5.424;2023-05-10T10:20:21;9.38;;;4.40;;
71771;SDS011;59606;52.138;5.424;2023-05-10T10:22:48;7.77;;;3.60;;
71771;SDS011;59606;52.138;5.424;2023-05-10T10:25:16;9.18;;;4.38;;
71771;SDS011;59606;52.138;5.424;2023-05-10T10:32:55;8.43;;;4.43;;
71771;SDS011;59606;52.138;5.424;2023-05-10T10:35:52;10.50;;;4.67;;
71771;SDS011;59606;52.138;5.424;2023-05-10T10:38:20;8.18;;;4.40;;
71771;SDS011;59606;52.138;5.424;2023-05-10T10:40:56;8.82;;;4.75;;
71771;SDS011;59606;52.138;5.424;2023-05-10T10:43:28;9.75;;;5.45;;
71771;SDS011;59606;52.138;5.424;2023-05-10T10:48:48;8.00;;;4.07;;
71771;SDS011;59606;52.138;5.424;2023-05-10T10:51:17;10.82;;;4.60;;
71771;SDS011;59606;52.138;5.424;2023-05-10T10:53:44;12.13;;;4.72;;
71771;SDS011;59606;52.138;5.424;2023-05-10T10:56:13;9.77;;;4.03;;
71771;SDS011;59606;52.138;5.424;2023-05-10T10:58:42;7.85;;;4.10;;
71771;SDS011;59606;52.138;5.424;2023-05-10T11:01:18;7.07;;;3.60;;
71771;SDS011;59606;52.138;5.424;2023-05-10T11:06:30;10.32;;;4.18;;
71771;SDS011;59606;52.138;5.424;2023-05-10T11:09:06;8.82;;;4.10;;
71771;SDS011;59606;52.138;5.424;2023-05-10T11:11:35;8.70;;;3.85;;
71771;SDS011;59606;52.138;5.424;2023-05-10T11:14:04;7.73;;;3.80;;
71771;SDS011;59606;52.138;5.424;2023-05-10T11:16:41;8.68;;;3.78;;
71771;SDS011;59606;52.138;5.424;2023-05-10T11:19:16;8.27;;;4.03;;
71771;SDS011;59606;52.138;5.424;2023-05-10T11:24:32;6.97;;;3.83;;
71771;SDS011;59606;52.138;5.424;2023-05-10T11:26:59;9.57;;;4.53;;
71771;SDS011;59606;52.138;5.424;2023-05-10T11:29:26;10.63;;;4.80;;
71771;SDS011;59606;52.138;5.424;2023-05-10T11:31:53;9.63;;;4.38;;
71771;SDS011;59606;52.138;5.424;2023-05-10T11:34:27;9.07;;;3.75;;
71771;SDS011;59606;52.138;5.424;2023-05-10T11:37:01;8.27;;;3.80;;
71771;SDS011;59606;52.138;5.424;2023-05-10T11:39:28;10.43;;;3.87;;
71771;SDS011;59606;52.138;5.424;2023-05-10T11:41:58;9.20;;;4.30;;
71771;SDS011;59606;52.138;5.424;2023-05-10T11:44:31;8.90;;;3.83;;
71771;SDS011;59606;52.138;5.424;2023-05-10T11:46:59;6.80;;;3.65;;
71771;SDS011;59606;52.138;5.424;2023-05-10T11:49:26;5.93;;;3.20;;
71771;SDS011;59606;52.138;5.424;2023-05-10T11:51:53;11.23;;;3.57;;
71771;SDS011;59606;52.138;5.424;2023-05-10T11:54:30;8.65;;;3.70;;
71771;SDS011;59606;52.138;5.424;2023-05-10T11:56:57;8.35;;;3.50;;
71771;SDS011;59606;52.138;5.424;2023-05-10T11:59:24;6.90;;;2.65;;
71771;SDS011;59606;52.138;5.424;2023-05-10T12:01:51;7.60;;;3.40;;
71771;SDS011;59606;52.138;5.424;2023-05-10T12:04:18;6.73;;;2.67;;
71771;SDS011;59606;52.138;5.424;2023-05-10T12:06:45;5.10;;;2.70;;
71771;SDS011;59606;52.138;5.424;2023-05-10T12:09:13;5.88;;;3.25;;
71771;SDS011;59606;52.138;5.424;2023-05-10T12:11:41;6.78;;;2.78;;
71771;SDS011;59606;52.138;5.424;2023-05-10T12:14:10;7.85;;;2.75;;
71771;SDS011;59606;52.138;5.424;2023-05-10T12:16:37;6.00;;;2.50;;
71771;SDS011;59606;52.138;5.424;2023-05-10T12:19:03;4.88;;;2.67;;
71771;SDS011;59606;52.138;5.424;2023-05-10T12:21:32;8.05;;;2.45;;
71771;SDS011;59606;52.138;5.424;2023-05-10T12:24:00;5.32;;;2.17;;
71771;SDS011;59606;52.138;5.424;2023-05-10T12:26:29;7.20;;;2.30;;
71771;SDS011;59606;52.138;5.424;2023-05-10T12:29:11;6.90;;;2.40;;
71771;SDS011;59606;52.138;5.424;2023-05-10T12:31:55;6.18;;;2.60;;
71771;SDS011;59606;52.138;5.424;2023-05-10T12:34:35;5.00;;;2.72;;
71771;SDS011;59606;52.138;5.424;2023-05-10T12:37:02;5.43;;;2.42;;
71771;SDS011;59606;52.138;5.424;2023-05-10T12:42:25;4.47;;;2.17;;
71771;SDS011;59606;52.138;5.424;2023-05-10T12:44:55;4.63;;;1.90;;
71771;SDS011;59606;52.138;5.424;2023-05-10T12:47:24;5.05;;;2.38;;
71771;SDS011;59606;52.138;5.424;2023-05-10T12:49:51;4.90;;;2.20;;
71771;SDS011;59606;52.138;5.424;2023-05-10T12:52:17;5.53;;;2.20;;
71771;SDS011;59606;52.138;5.424;2023-05-10T12:54:44;3.93;;;2.00;;
71771;SDS011;59606;52.138;5.424;2023-05-10T12:57:10;4.50;;;2.05;;
71771;SDS011;59606;52.138;5.424;2023-05-10T12:59:36;5.88;;;2.22;;
71771;SDS011;59606;52.138;5.424;2023-05-10T13:02:03;4.10;;;2.05;;
71771;SDS011;59606;52.138;5.424;2023-05-10T13:04:30;6.25;;;2.28;;
71771;SDS011;59606;52.138;5.424;2023-05-10T13:06:56;3.67;;;1.70;;
71771;SDS011;59606;52.138;5.424;2023-05-10T13:09:25;5.72;;;2.05;;
71771;SDS011;59606;52.138;5.424;2023-05-10T13:11:53;4.15;;;2.03;;
71771;SDS011;59606;52.138;5.424;2023-05-10T13:14:20;3.80;;;2.20;;
71771;SDS011;59606;52.138;5.424;2023-05-10T13:16:47;4.50;;;2.00;;
71771;SDS011;59606;52.138;5.424;2023-05-10T13:19:15;5.37;;;1.80;;
71771;SDS011;59606;52.138;5.424;2023-05-10T13:21:43;4.28;;;1.90;;
71771;SDS011;59606;52.138;5.424;2023-05-10T13:24:10;8.75;;;3.60;;
71771;SDS011;59606;52.138;5.424;2023-05-10T13:26:40;9.50;;;3.97;;
71771;SDS011;59606;52.138;5.424;2023-05-10T13:29:07;9.73;;;4.68;;
71771;SDS011;59606;52.138;5.424;2023-05-10T13:31:34;11.70;;;4.67;;
71771;SDS011;59606;52.138;5.424;2023-05-10T13:34:01;9.02;;;4.22;;
71771;SDS011;59606;52.138;5.424;2023-05-10T13:36:28;8.63;;;4.13;;
71771;SDS011;59606;52.138;5.424;2023-05-10T13:38:55;7.53;;;4.10;;
71771;SDS011;59606;52.138;5.424;2023-05-10T13:41:24;10.10;;;4.40;;
71771;SDS011;59606;52.138;5.424;2023-05-10T13:43:51;12.10;;;4.37;;
71771;SDS011;59606;52.138;5.424;2023-05-10T13:46:18;9.60;;;4.25;;
71771;SDS011;59606;52.138;5.424;2023-05-10T13:48:45;11.73;;;4.63;;
71771;SDS011;59606;52.138;5.424;2023-05-10T13:51:11;11.63;;;4.40;;
71771;SDS011;59606;52.138;5.424;2023-05-10T13:53:38;10.10;;;4.53;;
71771;SDS011;59606;52.138;5.424;2023-05-10T13:56:05;8.80;;;4.27;;
71771;SDS011;59606;52.138;5.424;2023-05-10T13:58:32;12.27;;;4.97;;
71771;SDS011;59606;52.138;5.424;2023-05-10T14:00:58;12.52;;;4.55;;
71771;SDS011;59606;52.138;5.424;2023-05-10T14:03:25;13.65;;;5.00;;
71771;SDS011;59606;52.138;5.424;2023-05-10T14:05:52;10.13;;;4.38;;
71771;SDS011;59606;52.138;5.424;2023-05-10T14:08:19;10.37;;;4.37;;
71771;SDS011;59606;52.138;5.424;2023-05-10T14:10:46;11.68;;;5.05;;
71771;SDS011;59606;52.138;5.424;2023-05-10T14:13:12;11.30;;;4.72;;
71771;SDS011;59606;52.138;5.424;2023-05-10T14:15:39;13.20;;;4.90;;
71771;SDS011;59606;52.138;5.424;2023-05-10T14:18:05;11.57;;;4.47;;
71771;SDS011;59606;52.138;5.424;2023-05-10T14:20:32;12.57;;;4.57;;
71771;SDS011;59606;52.138;5.424;2023-05-10T14:22:59;13.70;;;5.10;;
71771;SDS011;59606;52.138;5.424;2023-05-10T14:25:26;12.27;;;4.78;;
71771;SDS011;59606;52.138;5.424;2023-05-10T14:27:53;12.15;;;5.13;;
71771;SDS011;59606;52.138;5.424;2023-05-10T14:30:20;11.40;;;4.45;;
71771;SDS011;59606;52.138;5.424;2023-05-10T14:32:47;11.83;;;4.50;;
71771;SDS011;59606;52.138;5.424;2023-05-10T14:35:13;10.68;;;5.25;;
71771;SDS011;59606;52.138;5.424;2023-05-10T14:37:44;11.02;;;4.95;;
71771;SDS011;59606;52.138;5.424;2023-05-10T14:40:11;10.98;;;4.90;;
71771;SDS011;59606;52.138;5.424;2023-05-10T14:42:38;12.30;;;4.63;;
71771;SDS011;59606;52.138;5.424;2023-05-10T14:45:05;10.43;;;4.67;;
71771;SDS011;59606;52.138;5.424;2023-05-10T14:47:31;10.02;;;4.38;;
71771;SDS011;59606;52.138;5.424;2023-05-10T14:49:58;11.90;;;4.97;;
71771;SDS011;59606;52.138;5.424;2023-05-10T14:52:25;16.17;;;5.00;;
71771;SDS011;59606;52.138;5.424;2023-05-10T14:54:51;12.80;;;5.28;;
71771;SDS011;59606;52.138;5.424;2023-05-10T14:57:18;15.90;;;5.30;;
71771;SDS011;59606;52.138;5.424;2023-05-10T14:59:45;12.20;;;4.85;;
71771;SDS011;59606;52.138;5.424;2023-05-10T15:02:12;11.95;;;5.45;;
71771;SDS011;59606;52.138;5.424;2023-05-10T15:04:39;14.35;;;5.65;;
71771;SDS011;59606;52.138;5.424;2023-05-10T15:07:06;12.93;;;5.65;;
71771;SDS011;59606;52.138;5.424;2023-05-10T15:09:33;13.53;;;5.33;;
71771;SDS011;59606;52.138;5.424;2023-05-10T15:12:00;14.23;;;5.47;;
71771;SDS011;59606;52.138;5.424;2023-05-10T15:14:26;13.57;;;5.75;;
71771;SDS011;59606;52.138;5.424;2023-05-10T15:16:53;14.52;;;5.95;;
71771;SDS011;59606;52.138;5.424;2023-05-10T15:19:19;12.95;;;6.07;;